Time;durP1;ratioP1;P1;durP2;ratioP2;P2;SDS_P1;SDS_P2;PMS_P1;PMS_P2;Temp;Humidity;BMP_temperature;BMP_pressure;BME280_temperature;BME280_humidity;BME280_pressure;Samples;Min_cycle;Max_cycle;Signal;HPM_P1;HPM_P2
2022/11/29 00:01:04;;;;;;;1.80;1.67;;;5.30;97.70;;;5.07;62.99;95161.81;5025237;28;20506;-55
2022/11/29 00:03:32;;;;;;;2.00;1.80;;;5.20;97.80;;;5.06;62.92;95152.31;5025332;28;20490;-54
2022/11/29 00:06:05;;;;;;;1.63;1.17;;;5.20;97.80;;;5.07;62.90;95152.22;5021556;28;20535;-56
2022/11/29 00:08:32;;;;;;;1.73;1.63;;;5.20;97.80;;;5.08;63.03;95155.66;5025500;28;20527;-55
2022/11/29 00:11:04;;;;;;;1.80;1.70;;;5.20;97.80;;;5.09;62.78;95158.16;5025047;28;20496;-57
2022/11/29 00:13:31;;;;;;;1.60;1.50;;;5.20;97.80;;;5.08;62.98;95160.84;5025663;28;20441;-57
2022/11/29 00:16:03;;;;;;;1.30;1.20;;;5.20;97.70;;;5.08;62.77;95159.09;5025671;28;20484;-53
2022/11/29 00:18:32;;;;;;;1.67;1.23;;;5.20;97.60;;;5.07;62.65;95154.81;5025285;28;20548;-54
2022/11/29 00:20:59;;;;;;;2.20;2.00;;;5.20;97.50;;;5.08;62.43;95166.06;5023147;28;20884;-57
2022/11/29 00:23:26;;;;;;;1.63;1.53;;;5.20;97.30;;;5.05;62.16;95161.06;5025095;28;20965;-56
2022/11/29 00:25:54;;;;;;;1.40;1.30;;;5.20;97.30;;;5.02;61.93;95160.31;5024542;28;20452;-56
2022/11/29 00:28:21;;;;;;;1.20;1.10;;;5.20;97.20;;;4.99;62.16;95165.75;5025435;28;20530;-55
2022/11/29 00:30:48;;;;;;;1.70;1.30;;;5.20;97.30;;;4.98;62.44;95164.06;5025101;28;20492;-56
2022/11/29 00:33:15;;;;;;;1.57;1.27;;;5.10;97.30;;;4.99;62.34;95170.13;5025232;28;20457;-53
2022/11/29 00:35:44;;;;;;;1.60;1.50;;;5.10;97.30;;;4.94;62.51;95160.00;5025140;28;20476;-55
2022/11/29 00:38:11;;;;;;;1.40;1.30;;;5.10;97.40;;;4.97;62.67;95169.38;5025121;28;20522;-56
2022/11/29 00:40:38;;;;;;;1.80;1.70;;;5.10;97.40;;;4.94;62.55;95170.41;5024685;28;21001;-54
2022/11/29 00:43:06;;;;;;;1.73;1.63;;;5.10;97.50;;;4.94;62.52;95170.41;5025013;28;20460;-55
2022/11/29 00:45:33;;;;;;;1.83;1.53;;;5.10;97.50;;;4.91;62.39;95172.38;5024463;28;20472;-57
2022/11/29 00:48:00;;;;;;;1.67;1.57;;;5.10;97.60;;;4.90;62.58;95174.16;5024597;28;20876;-56
2022/11/29 00:50:27;;;;;;;2.03;1.93;;;5.00;97.60;;;4.88;62.82;95173.41;5024971;28;20477;-55
2022/11/29 00:52:56;;;;;;;1.60;1.50;;;5.00;97.70;;;4.88;62.99;95173.41;5025162;28;20459;-55
2022/11/29 00:55:23;;;;;;;2.00;1.90;;;5.00;97.80;;;4.86;63.06;95172.66;5023855;28;20827;-56
2022/11/29 00:57:50;;;;;;;1.80;1.70;;;5.00;97.90;;;4.86;63.08;95172.66;5024537;28;20526;-54
2022/11/29 01:00:18;;;;;;;2.10;1.93;;;5.00;98.00;;;4.85;63.15;95164.00;5025066;28;20485;-54
2022/11/29 01:02:46;;;;;;;2.07;1.87;;;5.00;98.00;;;4.83;63.22;95173.72;5024557;28;20559;-56
2022/11/29 01:05:13;;;;;;;1.97;1.87;;;5.00;98.00;;;4.84;63.26;95169.31;5024363;28;20488;-54
2022/11/29 01:07:40;;;;;;;1.80;1.70;;;5.00;98.00;;;4.81;63.10;95165.13;5024839;28;20461;-55
2022/11/29 01:10:10;;;;;;;2.93;2.00;;;5.00;98.00;;;4.84;63.34;95166.72;5020860;28;20925;-55
2022/11/29 01:12:37;;;;;;;2.40;2.30;;;5.00;98.00;;;4.84;63.49;95164.13;5024246;28;20495;-56
2022/11/29 01:15:05;;;;;;;1.83;1.73;;;5.00;98.10;;;4.84;63.62;95158.91;5024904;28;20479;-55
2022/11/29 01:17:34;;;;;;;1.93;1.83;;;5.00;98.20;;;4.83;63.37;95157.22;5024543;28;20480;-55
2022/11/29 01:20:02;;;;;;;2.77;2.67;;;5.00;98.30;;;4.82;63.43;95156.41;5024412;28;20853;-57
2022/11/29 01:22:29;;;;;;;2.30;2.17;;;5.00;98.10;;;4.82;64.20;95155.56;5024237;28;20471;-55
2022/11/29 01:24:56;;;;;;;2.20;2.10;;;5.00;98.50;;;4.80;63.96;95152.19;5023441;28;20477;-55
2022/11/29 01:27:25;;;;;;;2.10;2.00;;;5.00;98.50;;;4.79;64.28;95145.34;5024404;28;20515;-57
2022/11/29 01:29:52;;;;;;;2.20;2.10;;;4.90;98.70;;;4.77;64.15;95150.66;5024540;28;20473;-55
2022/11/29 01:32:20;;;;;;;3.23;2.93;;;4.90;98.60;;;4.77;63.56;95147.19;5028238;28;20492;-57
2022/11/29 01:34:47;;;;;;;2.63;2.53;;;4.90;98.60;;;4.77;64.11;95149.78;5028204;28;20481;-53
2022/11/29 01:37:14;;;;;;;2.70;2.50;;;4.90;98.70;;;4.77;63.82;95140.22;5028062;28;20460;-55
2022/11/29 01:39:41;;;;;;;2.73;2.63;;;4.90;98.60;;;4.78;64.05;95139.28;5028324;28;20469;-57
2022/11/29 01:42:10;;;;;;;2.63;2.43;;;4.90;98.70;;;4.77;63.82;95145.44;5027971;28;20681;-56
2022/11/29 01:45:07;;;;;;;3.83;3.20;;;4.90;98.60;;;4.75;64.12;95136.03;5027805;28;20461;-54
2022/11/29 01:47:34;;;;;;;2.70;2.60;;;4.90;98.70;;;4.74;64.25;95142.16;5025750;28;20969;-55
2022/11/29 01:50:01;;;;;;;2.83;2.63;;;4.90;98.70;;;4.69;64.31;95128.59;5027738;28;20476;-55
2022/11/29 01:52:30;;;;;;;2.80;2.60;;;4.90;98.80;;;4.68;64.22;95130.38;5027570;28;20498;-55
2022/11/29 01:55:00;;;;;;;2.90;2.70;;;4.90;98.90;;;4.67;63.95;95132.13;5027268;28;20487;-54
2022/11/29 01:57:27;;;;;;;3.03;2.83;;;4.90;98.90;;;4.66;64.30;95125.28;5027557;28;20514;-55
2022/11/29 01:59:57;;;;;;;2.77;2.57;;;4.80;98.90;;;4.67;64.31;95128.69;5027709;28;20476;-55
2022/11/29 02:02:30;;;;;;;3.07;2.67;;;4.80;98.90;;;4.65;64.28;95126.19;5027788;28;20996;-54
2022/11/29 02:04:57;;;;;;;3.23;3.03;;;4.80;99.00;;;4.67;64.58;95119.09;5027305;28;20492;-56
2022/11/29 02:07:25;;;;;;;2.27;2.07;;;4.80;99.10;;;4.67;64.43;95116.50;5023866;28;20534;-53
2022/11/29 02:09:52;;;;;;;3.73;3.43;;;4.80;99.10;;;4.69;64.06;95119.00;5027637;28;20530;-53
2022/11/29 02:12:25;;;;;;;3.10;2.90;;;4.90;99.00;;;4.69;64.23;95119.00;5023530;28;20493;-58
2022/11/29 02:15:18;;;;;;;4.50;2.90;;;4.90;99.00;;;4.70;64.12;95117.25;5024999;28;20480;-56
2022/11/29 02:18:01;;;;;;;2.97;2.77;;;4.80;98.90;;;4.71;64.36;95121.53;5024437;28;20452;-55
2022/11/29 02:21:05;;;;;;;4.43;3.30;;;4.80;99.00;;;4.70;64.10;95120.69;5025987;28;20872;-55
2022/11/29 02:24:29;;;;;;;3.67;2.87;;;4.90;98.90;;;4.73;64.21;95124.88;5026620;28;20502;-58
2022/11/29 02:31:03;;;;;;;3.33;3.00;;;4.90;98.80;;;4.70;63.92;95119.88;5110002;27;21077;-55
2022/11/29 02:33:52;;;;;;;3.23;2.93;;;4.90;98.80;;;4.70;64.36;95117.25;5095079;28;20442;-58
2022/11/29 02:36:33;;;;;;;2.10;2.00;;;4.80;98.80;;;4.67;64.04;95116.50;5088310;28;20445;-56
2022/11/29 02:39:38;;;;;;;2.40;2.30;;;4.90;98.80;;;4.69;64.03;95120.78;5097080;28;20469;-58
2022/11/29 02:42:29;;;;;;;2.40;2.20;;;4.80;98.80;;;4.69;63.88;95128.59;5093952;28;20453;-55
2022/11/29 02:45:08;;;;;;;2.70;2.50;;;4.80;98.70;;;4.69;63.97;95126.81;5093908;28;20876;-55
2022/11/29 02:47:46;;;;;;;2.70;2.50;;;4.90;98.80;;;4.73;63.97;95130.91;5086309;28;20935;-56
2022/11/29 02:50:31;;;;;;;2.60;2.40;;;4.90;98.70;;;4.74;63.88;95127.41;5096945;28;20496;-54
2022/11/29 02:53:04;;;;;;;2.90;2.33;;;4.90;98.70;;;4.72;63.91;95128.41;5090157;28;20451;-57
2022/11/29 02:55:40;;;;;;;2.07;1.93;;;4.90;98.70;;;4.71;63.67;95124.97;5095104;28;20488;-56
2022/11/29 02:58:16;;;;;;;2.57;2.37;;;4.90;98.60;;;4.73;63.72;95124.88;5089548;28;20510;-57
2022/11/29 03:00:50;;;;;;;3.93;2.83;;;4.90;98.60;;;4.72;63.71;95128.41;5094850;28;20777;-56
2022/11/29 03:03:21;;;;;;;2.40;2.20;;;4.90;98.60;;;4.69;63.91;95123.41;5095360;28;20441;-55
2022/11/29 03:05:53;;;;;;;2.20;2.03;;;4.90;98.60;;;4.67;63.92;95120.88;5093754;28;20500;-55
2022/11/29 03:08:25;;;;;;;2.53;2.40;;;4.90;98.60;;;4.70;63.52;95133.72;5095930;28;20453;-54
2022/11/29 03:10:58;;;;;;;2.40;2.20;;;4.90;98.60;;;4.70;63.82;95125.09;5095029;28;20532;-55
2022/11/29 03:13:45;;;;;;;3.33;2.03;;;4.90;98.50;;;4.70;63.85;95132.91;5088092;28;20979;-56
2022/11/29 03:16:19;;;;;;;1.77;1.67;;;4.90;98.60;;;4.72;63.75;95133.63;5094971;28;21048;-54
2022/11/29 03:18:54;;;;;;;2.40;2.20;;;4.90;98.60;;;4.75;63.59;95136.03;5093458;28;20442;-55
2022/11/29 03:21:30;;;;;;;1.70;1.60;;;4.90;98.40;;;4.75;63.54;95133.44;5100323;28;20502;-55
2022/11/29 03:23:58;;;;;;;2.53;2.10;;;4.90;98.30;;;4.73;63.36;95133.53;5094711;28;20522;-57
2022/11/29 03:26:31;;;;;;;3.33;1.70;;;4.90;98.30;;;4.76;63.53;95135.13;5096224;28;20456;-55
2022/11/29 03:29:06;;;;;;;2.03;1.93;;;4.90;98.30;;;4.76;63.39;95135.94;5095887;28;20548;-54
2022/11/29 03:31:36;;;;;;;2.60;1.87;;;4.90;98.40;;;4.79;63.44;95145.34;5094082;28;20446;-55
2022/11/29 03:34:09;;;;;;;2.87;1.80;;;4.90;98.30;;;4.81;63.29;95143.47;5086855;28;20547;-54
2022/11/29 03:36:42;;;;;;;4.60;1.93;;;4.90;98.30;;;4.83;63.07;95138.97;5088971;28;20499;-56
2022/11/29 03:39:17;;;;;;;1.83;1.73;;;5.00;98.20;;;4.86;63.24;95138.78;5095650;28;21050;-54
2022/11/29 03:41:48;;;;;;;1.70;1.60;;;5.00;98.10;;;4.86;63.10;95141.38;5083910;28;20499;-56
2022/11/29 03:44:18;;;;;;;2.20;2.00;;;5.00;98.50;;;4.89;63.29;95135.97;5081447;28;21017;-56
2022/11/29 03:46:52;;;;;;;1.70;1.60;;;5.00;98.10;;;4.87;63.06;95132.66;5083094;28;20474;-54
2022/11/29 03:49:23;;;;;;;2.03;1.93;;;5.00;98.00;;;4.88;63.06;95129.13;5077118;28;20521;-59
2022/11/29 03:52:00;;;;;;;3.37;1.70;;;5.00;98.00;;;4.87;63.15;95139.63;5082677;28;20450;-56
2022/11/29 03:54:29;;;;;;;1.53;1.43;;;5.00;98.00;;;4.85;62.90;95135.34;5079278;28;20478;-54
2022/11/29 03:56:57;;;;;;;1.73;1.37;;;5.00;98.00;;;4.84;62.42;95133.66;5079022;28;20450;-55
2022/11/29 03:59:43;;;;;;;1.33;1.23;;;5.00;98.00;;;4.87;62.59;95132.66;5079853;28;20465;-54
2022/11/29 04:02:59;;;;;;;1.60;1.50;;;5.00;98.00;;;4.90;62.87;95137.66;5076338;28;20502;-55
2022/11/29 04:05:54;;;;;;;1.60;1.50;;;5.10;98.10;;;4.93;62.91;95134.03;5055404;28;20487;-55
2022/11/29 04:09:12;;;;;;;1.97;1.87;;;5.10;98.10;;;4.93;62.52;95141.84;5082899;28;20572;-56
2022/11/29 04:12:30;;;;;;;1.53;1.43;;;5.10;98.30;;;4.95;62.62;95134.75;5084119;28;20480;-57
2022/11/29 04:15:48;;;;;;;1.40;1.30;;;5.10;97.70;;;4.95;62.39;95146.00;5079334;28;20481;-55
2022/11/29 04:18:59;;;;;;;1.30;1.20;;;5.10;97.80;;;4.93;62.50;95140.06;5033311;28;20561;-55
2022/11/29 04:21:33;;;;;;;3.37;1.50;;;5.10;97.80;;;4.97;62.64;95149.38;5078973;28;20447;-55
2022/11/29 04:24:58;;;;;;;1.70;1.60;;;5.10;97.70;;;4.99;62.17;95142.28;5078130;28;20889;-55
2022/11/29 04:27:47;;;;;;;1.30;1.20;;;5.20;97.70;;;5.03;62.65;95148.13;5078885;28;20442;-57
2022/11/29 04:30:20;;;;;;;1.80;0.90;;;5.10;97.70;;;5.07;62.37;95154.81;5079818;28;20601;-54
2022/11/29 04:33:32;;;;;;;1.47;1.27;;;5.20;97.60;;;5.07;62.12;95152.22;5077853;28;20458;-55
2022/11/29 04:36:35;;;;;;;1.80;1.10;;;5.20;97.30;;;5.07;61.99;95147.00;5077354;28;20438;-58
2022/11/29 04:39:23;;;;;;;2.47;1.50;;;5.20;97.30;;;5.06;61.84;95145.31;5081871;28;20527;-54
2022/11/29 04:42:14;;;;;;;1.73;1.13;;;5.20;97.20;;;5.05;62.11;95145.41;5079709;28;20511;-55
2022/11/29 04:44:55;;;;;;;3.90;1.47;;;5.20;97.20;;;5.03;61.74;95138.56;5075835;28;20501;-56
2022/11/29 04:47:50;;;;;;;1.30;1.20;;;5.20;97.20;;;5.04;62.20;95139.38;5081035;28;20497;-56
2022/11/29 04:50:26;;;;;;;2.20;0.90;;;5.20;97.50;;;5.06;62.21;95141.88;5076965;28;20502;-56
2022/11/29 04:53:30;;;;;;;1.63;1.23;;;5.20;97.50;;;5.10;63.20;95143.38;5072737;28;20469;-56
2022/11/29 04:56:05;;;;;;;1.40;1.30;;;5.20;98.20;;;5.14;63.01;95145.69;5073543;28;20454;-57
2022/11/29 04:58:37;;;;;;;1.77;1.67;;;5.30;98.20;;;5.21;62.95;95140.88;5078067;28;20450;-55
2022/11/29 05:01:11;;;;;;;4.40;2.50;;;5.30;98.20;;;5.24;62.47;95140.69;5079165;28;20450;-56
2022/11/29 05:03:41;;;;;;;2.90;2.50;;;5.40;97.90;;;5.30;62.10;95145.50;5080209;28;20454;-54
2022/11/29 05:06:20;;;;;;;2.30;2.20;;;5.40;97.60;;;5.34;61.86;95133.91;5083853;28;20438;-54
2022/11/29 05:08:58;;;;;;;1.73;1.63;;;5.50;97.60;;;5.37;62.57;95141.53;5080149;28;20441;-56
2022/11/29 05:11:35;;;;;;;7.87;2.70;;;5.50;97.60;;;5.43;62.44;95140.28;5078408;28;20504;-55
2022/11/29 05:14:10;;;;;;;1.20;1.10;;;5.50;97.30;;;5.45;62.08;95150.63;5078953;28;20513;-56
2022/11/29 05:16:47;;;;;;;1.47;1.37;;;5.60;97.30;;;5.45;61.27;95143.63;5077203;28;20456;-56
2022/11/29 05:19:29;;;;;;;1.93;1.33;;;5.60;97.00;;;5.44;61.78;95151.56;5076303;28;20895;-58
2022/11/29 05:22:04;;;;;;;1.63;1.53;;;5.60;97.20;;;5.43;61.71;95139.47;5080292;28;20529;-58
2022/11/29 05:24:45;;;;;;;1.13;1.03;;;5.60;97.20;;;5.41;61.89;95138.72;5075953;28;21005;-59
2022/11/29 05:27:21;;;;;;;4.20;1.40;;;5.60;97.10;;;5.42;61.95;95132.56;5081036;28;21043;-56
2022/11/29 05:29:54;;;;;;;1.30;1.20;;;5.50;97.00;;;5.41;61.58;95131.75;5076865;28;20813;-54
2022/11/29 05:32:29;;;;;;;2.70;1.10;;;5.60;97.00;;;5.38;61.42;95135.38;5079495;28;21226;-56
2022/11/29 05:35:39;;;;;;;1.20;1.10;;;5.50;96.90;;;5.35;61.83;95135.59;5079911;28;20500;-55
2022/11/29 05:38:16;;;;;;;3.23;1.30;;;5.50;96.90;;;5.33;62.01;95140.09;5078886;28;21102;-57
2022/11/29 05:40:51;;;;;;;2.17;1.40;;;5.50;97.20;;;5.34;61.80;95140.91;5076708;28;20485;-55
2022/11/29 05:43:31;;;;;;;2.40;1.20;;;5.50;97.10;;;5.35;62.05;95143.41;5073535;28;20468;-56
2022/11/29 05:46:03;;;;;;;1.47;1.30;;;5.50;97.20;;;5.36;61.64;95145.09;5078670;28;20500;-55
2022/11/29 05:48:36;;;;;;;3.03;1.20;;;5.50;97.20;;;5.34;61.67;95144.34;5078913;28;20484;-56
2022/11/29 05:51:11;;;;;;;1.83;1.73;;;5.50;97.20;;;5.33;61.62;95147.91;5074222;28;20909;-55
2022/11/29 05:53:44;;;;;;;2.73;1.97;;;5.50;97.20;;;5.32;61.73;95146.22;5076197;28;20974;-57
2022/11/29 05:56:15;;;;;;;15.20;2.93;;;5.50;97.20;;;5.29;62.50;95143.00;5077351;28;20446;-55
2022/11/29 05:58:48;;;;;;;1.80;1.70;;;5.40;97.50;;;5.32;62.25;95145.41;5076354;28;20496;-55
2022/11/29 06:01:21;;;;;;;2.73;2.50;;;5.40;97.40;;;5.33;62.36;95147.06;5078505;28;20498;-54
2022/11/29 06:03:56;;;;;;;2.43;2.23;;;5.40;97.70;;;5.33;62.08;95145.28;5076849;28;20474;-56
2022/11/29 06:06:38;;;;;;;1.90;1.77;;;5.50;97.60;;;5.30;62.07;95140.28;5076155;28;20822;-57
2022/11/29 06:09:13;;;;;;;2.23;2.10;;;5.40;97.20;;;5.27;61.87;95144.88;5074380;28;20470;-55
2022/11/29 06:11:44;;;;;;;2.27;2.07;;;5.40;97.30;;;5.25;62.02;95152.78;5075888;28;20439;-55
2022/11/29 06:14:35;;;;;;;3.27;3.07;;;5.40;97.30;;;5.21;62.07;95152.13;5072116;28;20479;-56
2022/11/29 06:17:31;;;;;;;3.03;2.73;;;5.40;97.20;;;5.18;62.37;95156.72;5071706;28;20458;-57
2022/11/29 06:20:17;;;;;;;6.33;3.53;;;5.30;97.50;;;5.20;62.77;95150.50;5077471;28;20462;-55
2022/11/29 06:22:58;;;;;;;4.27;2.93;;;5.30;98.00;;;5.26;62.33;95153.63;5077876;28;20449;-56
2022/11/29 06:25:46;;;;;;;2.90;2.70;;;5.40;97.70;;;5.31;62.74;95162.78;5073722;28;21044;-55
2022/11/29 06:28:41;;;;;;;3.80;2.37;;;5.40;97.70;;;5.33;61.98;95155.72;5081093;28;20439;-53
2022/11/29 06:31:13;;;;;;;3.80;2.33;;;5.40;97.40;;;5.34;62.39;95149.56;5073494;28;20486;-55
2022/11/29 06:33:46;;;;;;;2.37;2.17;;;5.40;97.50;;;5.37;62.11;95151.97;5075746;28;20853;-56
2022/11/29 06:36:20;;;;;;;3.90;2.93;;;5.50;97.50;;;5.42;62.17;95156.03;5071692;28;20601;-56
2022/11/29 06:38:47;;;;;;;6.00;3.03;;;5.50;97.40;;;5.45;61.77;95159.28;5074586;28;20510;-53
2022/11/29 06:41:19;;;;;;;7.67;4.53;;;5.60;97.40;;;5.48;61.79;95166.06;5074418;28;20451;-55
2022/11/29 06:43:47;;;;;;;6.07;4.00;;;5.60;97.30;;;5.50;61.80;95162.44;5076464;28;20473;-57
2022/11/29 06:46:28;;;;;;;6.50;3.13;;;5.60;97.30;;;5.52;61.86;95159.72;5075082;28;20450;-56
2022/11/29 06:49:03;;;;;;;3.77;2.83;;;5.60;97.20;;;5.53;61.67;95161.38;5079182;28;20470;-55
2022/11/29 06:51:34;;;;;;;6.53;2.90;;;5.70;97.30;;;5.57;61.97;95161.06;5071855;28;20474;-56
2022/11/29 06:54:10;;;;;;;5.70;2.57;;;5.70;97.20;;;5.59;61.92;95163.59;5074662;28;20458;-56
2022/11/29 06:56:41;;;;;;;2.13;1.93;;;5.70;97.30;;;5.63;61.71;95167.66;5073529;28;20439;-55
2022/11/29 06:59:14;;;;;;;2.53;2.27;;;5.70;97.30;;;5.69;62.18;95172.47;5080721;28;20546;-56
2022/11/29 07:01:45;;;;;;;2.60;2.40;;;5.80;97.50;;;5.77;64.12;95161.53;5073827;28;20449;-54
2022/11/29 07:04:29;;;;;;;2.17;2.07;;;5.90;99.10;;;5.86;64.14;95162.69;5071334;28;20473;-53
2022/11/29 07:06:57;;;;;;;3.40;1.93;;;5.90;99.00;;;5.95;64.22;95171.66;5080409;28;20923;-57
2022/11/29 07:09:28;;;;;;;2.50;2.30;;;6.00;99.20;;;6.03;64.18;95159.78;5077013;28;20478;-55
2022/11/29 07:11:56;;;;;;;4.13;3.73;;;6.10;99.10;;;6.16;62.13;95161.56;5078440;28;20537;-56
2022/11/29 07:14:24;;;;;;;8.47;4.50;;;6.20;98.10;;;6.21;62.19;95160.31;5074018;28;20520;-58
2022/11/29 07:16:57;;;;;;;7.47;3.20;;;6.30;97.60;;;6.24;61.51;95161.84;5082565;28;21040;-56
2022/11/29 07:19:33;;;;;;;4.50;3.43;;;6.30;97.10;;;6.24;60.92;95164.47;5085168;28;20495;-55
2022/11/29 07:22:05;;;;;;;3.07;2.87;;;6.30;96.70;;;6.21;60.84;95167.28;5076671;28;20964;-55
2022/11/29 07:24:48;;;;;;;6.10;3.03;;;6.30;96.60;;;6.19;60.97;95174.41;5082878;28;21103;-56
2022/11/29 07:27:19;;;;;;;4.00;3.60;;;6.30;96.90;;;6.20;61.20;95173.47;5074835;28;20471;-56
2022/11/29 07:29:59;;;;;;;7.57;4.57;;;6.30;96.90;;;6.20;61.38;95176.09;5083549;28;20489;-53
2022/11/29 07:32:32;;;;;;;7.27;5.17;;;6.30;96.90;;;6.18;61.41;95177.94;5079921;28;20473;-56
2022/11/29 07:35:04;;;;;;;7.17;4.90;;;6.30;96.80;;;6.14;60.90;95176.50;5080175;28;20465;-59
2022/11/29 07:37:35;;;;;;;9.93;5.50;;;6.20;96.80;;;6.08;61.72;95173.34;5081430;28;20453;-56
2022/11/29 07:40:06;;;;;;;5.70;5.20;;;6.20;96.90;;;6.06;61.21;95170.03;5084702;28;20465;-55
2022/11/29 07:42:39;;;;;;;7.57;4.87;;;6.20;97.00;;;6.06;61.46;95162.19;5081494;28;20449;-56
2022/11/29 07:45:12;;;;;;;5.43;4.10;;;6.20;97.00;;;6.11;61.17;95169.72;5076864;28;21080;-56
2022/11/29 07:47:39;;;;;;;7.47;4.37;;;6.20;97.00;;;6.15;61.64;95159.88;5081332;28;20966;-55
2022/11/29 07:50:09;;;;;;;5.70;3.87;;;6.30;97.10;;;6.21;61.13;95170.75;5079182;28;20651;-55
2022/11/29 07:52:36;;;;;;;4.63;3.70;;;6.30;97.40;;;6.30;61.04;95171.06;5079294;28;20454;-57
2022/11/29 07:55:04;;;;;;;8.67;4.23;;;6.40;96.90;;;6.33;61.07;95166.44;5080060;28;20478;-55
2022/11/29 07:57:32;;;;;;;9.23;3.57;;;6.40;96.90;;;6.39;60.51;95166.03;5079545;28;20950;-54
2022/11/29 07:59:59;;;;;;;7.90;4.20;;;6.50;96.70;;;6.43;61.20;95167.47;5076526;28;20471;-55
2022/11/29 08:02:28;;;;;;;5.50;4.77;;;6.50;96.70;;;6.46;60.64;95161.22;5078859;28;20938;-55
2022/11/29 08:04:55;;;;;;;10.90;4.73;;;6.60;96.60;;;6.49;60.13;95170.59;5080635;28;20467;-54
2022/11/29 08:07:24;;;;;;;9.30;6.20;;;6.60;96.30;;;6.54;60.52;95173.75;5082392;28;20446;-57
2022/11/29 08:09:51;;;;;;;12.63;6.40;;;6.60;96.40;;;6.59;60.72;95172.47;5080129;28;20466;-57
2022/11/29 08:12:18;;;;;;;16.90;7.60;;;6.70;96.50;;;6.62;60.77;95177.47;5083771;28;20446;-56
2022/11/29 08:14:46;;;;;;;13.90;6.20;;;6.70;96.20;;;6.62;60.42;95174.03;5081806;28;20474;-52
2022/11/29 08:17:13;;;;;;;12.07;7.37;;;6.70;96.20;;;6.64;60.08;95174.75;5081941;28;20484;-55
2022/11/29 08:19:40;;;;;;;8.13;6.43;;;6.70;96.20;;;6.66;60.11;95178.09;5085553;28;20465;-56
2022/11/29 08:22:08;;;;;;;12.30;7.70;;;6.70;96.20;;;6.67;60.80;95173.72;5081896;28;20822;-54
2022/11/29 08:24:36;;;;;;;13.57;5.87;;;6.80;96.20;;;6.64;60.33;95174.75;5079359;28;20466;-56
2022/11/29 08:27:04;;;;;;;9.70;5.50;;;6.80;96.20;;;6.63;60.48;95173.06;5078878;28;20470;-57
2022/11/29 08:29:31;;;;;;;12.40;6.00;;;6.70;96.20;;;6.63;60.53;95175.69;5081496;28;20485;-57
2022/11/29 08:31:58;;;;;;;8.80;5.60;;;6.70;96.30;;;6.66;60.46;95178.09;5080903;28;20485;-55
2022/11/29 08:34:26;;;;;;;6.60;4.63;;;6.80;96.60;;;6.71;60.96;95181.22;5081761;28;20524;-57
2022/11/29 08:36:55;;;;;;;5.03;4.43;;;6.80;96.50;;;6.75;60.71;95181.84;5081453;28;20506;-55
2022/11/29 08:39:22;;;;;;;6.20;4.10;;;6.80;96.50;;;6.78;60.51;95192.91;5081869;28;20470;-56
2022/11/29 08:41:51;;;;;;;7.00;4.13;;;6.90;96.40;;;6.76;60.50;95186.94;5079085;28;20542;-55
2022/11/29 08:44:18;;;;;;;11.03;5.60;;;6.90;96.40;;;6.77;60.97;95183.41;5081966;28;20474;-57
2022/11/29 08:49:30;;;;;;;5.97;4.57;;;6.80;96.40;;;6.80;60.78;95191.03;5079209;28;20477;-57
2022/11/29 08:54:38;;;;;;;6.43;5.00;;;6.90;96.30;;;6.80;60.06;95188.41;5076354;28;20483;-58
2022/11/29 08:57:07;;;;;;;5.40;3.67;;;6.90;96.30;;;6.79;60.26;95186.75;5078110;28;21001;-57
2022/11/29 08:59:35;;;;;;;3.40;3.10;;;6.90;95.90;;;6.80;60.17;95188.41;5079333;28;20832;-55
2022/11/29 09:02:02;;;;;;;5.83;3.47;;;6.90;95.90;;;6.80;60.23;95185.81;5078952;28;20446;-56
2022/11/29 09:04:29;;;;;;;6.27;4.50;;;6.90;96.10;;;6.86;60.30;95187.13;5081129;28;20478;-56
2022/11/29 09:06:56;;;;;;;9.27;4.93;;;6.90;96.30;;;6.93;60.09;95179.69;5079430;28;20454;-56
2022/11/29 09:09:24;;;;;;;10.60;3.80;;;7.00;96.30;;;7.01;60.04;95179.97;5077191;28;20497;-56
2022/11/29 09:11:51;;;;;;;12.97;5.60;;;7.10;96.40;;;7.07;60.54;95176.91;5079262;28;20497;-55
2022/11/29 09:14:21;;;;;;;4.40;3.03;;;7.10;96.20;;;7.10;59.98;95173.25;5080259;28;20479;-56
2022/11/29 09:16:49;;;;;;;3.00;2.80;;;7.20;95.90;;;7.10;59.08;95166.22;5081954;28;20438;-56
2022/11/29 09:19:16;;;;;;;2.67;2.47;;;7.20;95.50;;;7.10;59.91;95171.47;5081791;28;20502;-57
2022/11/29 09:21:43;;;;;;;3.43;2.93;;;7.20;95.70;;;7.11;59.48;95170.53;5081956;28;20831;-57
2022/11/29 09:24:11;;;;;;;8.63;3.50;;;7.20;95.50;;;7.13;59.54;95165.19;5077945;28;20486;-55
2022/11/29 09:26:39;;;;;;;3.63;3.10;;;7.20;95.50;;;7.17;59.57;95169.22;5081699;28;20454;-55
2022/11/29 09:29:07;;;;;;;2.80;2.50;;;7.20;95.60;;;7.17;58.91;95153.53;5078682;28;20537;-55
2022/11/29 09:31:35;;;;;;;6.10;3.93;;;7.30;95.40;;;7.21;59.70;95156.78;5080282;28;21361;-56
2022/11/29 09:34:03;;;;;;;4.53;4.00;;;7.30;95.50;;;7.23;59.17;95155.69;5078969;28;20475;-54
2022/11/29 09:36:30;;;;;;;6.70;4.30;;;7.30;95.40;;;7.27;59.50;95145.88;5080653;28;20457;-56
2022/11/29 09:38:57;;;;;;;7.50;5.10;;;7.30;95.30;;;7.28;59.13;95143.13;5078651;28;20475;-55
2022/11/29 09:42:02;;;;;;;5.83;2.70;;;7.40;94.90;;;7.30;59.02;95132.56;5076909;28;20968;-55
2022/11/29 09:44:41;;;;;;;2.73;2.53;;;7.40;95.20;;;7.31;58.56;95131.59;5076186;28;20501;-55
2022/11/29 09:47:23;;;;;;;4.47;2.20;;;7.40;94.60;;;7.32;58.51;95125.41;5078898;28;20460;-56
2022/11/29 09:49:58;;;;;;;2.20;1.97;;;7.40;94.50;;;7.30;57.99;95125.53;5078592;28;20469;-56
2022/11/29 09:52:36;;;;;;;2.90;2.70;;;7.40;94.20;;;7.29;58.58;95128.25;5077805;28;20894;-54
2022/11/29 09:55:12;;;;;;;5.37;2.30;;;7.40;94.40;;;7.29;58.17;95125.66;5078066;28;20462;-55
2022/11/29 09:57:40;;;;;;;2.63;1.70;;;7.40;94.30;;;7.31;58.29;95128.97;5075465;28;20787;-56
2022/11/29 10:00:15;;;;;;;2.30;1.70;;;7.40;94.40;;;7.32;57.96;95128.88;5080426;28;20558;-55
2022/11/29 10:02:46;;;;;;;6.43;3.90;;;7.40;94.50;;;7.34;58.10;95120.91;5074286;28;20521;-56
2022/11/29 10:05:17;;;;;;;7.10;4.13;;;7.40;94.30;;;7.39;58.49;95110.09;5077713;28;20530;-55
2022/11/29 10:07:46;;;;;;;5.97;3.57;;;7.50;94.50;;;7.43;57.61;95109.75;5077549;28;20526;-55
2022/11/29 10:10:17;;;;;;;6.53;4.23;;;7.50;93.90;;;7.43;57.65;95099.28;5077065;28;20492;-55
2022/11/29 10:12:48;;;;;;;15.30;4.50;;;7.50;93.90;;;7.47;57.83;95102.53;5077232;28;20957;-56
2022/11/29 10:15:18;;;;;;;6.90;4.23;;;7.50;94.30;;;7.50;57.92;95095.25;5079578;28;20474;-56
2022/11/29 10:17:50;;;;;;;3.10;2.37;;;7.50;94.10;;;7.53;57.53;95084.56;5077672;28;20878;-54
2022/11/29 10:20:19;;;;;;;3.70;3.00;;;7.60;94.10;;;7.56;57.83;95093.13;5084761;28;20462;-54
2022/11/29 10:22:52;;;;;;;3.03;2.73;;;7.60;93.90;;;7.56;58.06;95099.22;5077088;28;20454;-53
2022/11/29 10:25:24;;;;;;;3.97;2.63;;;7.60;93.90;;;7.56;57.66;95100.97;5077732;28;20476;-59
2022/11/29 10:27:51;;;;;;;4.40;3.43;;;7.60;94.20;;;7.59;57.68;95100.75;5078854;28;21091;-55
2022/11/29 10:30:19;;;;;;;3.50;2.40;;;7.60;94.30;;;7.62;58.48;95095.28;5079701;28;20926;-55
2022/11/29 10:32:50;;;;;;;1.57;1.47;;;7.70;94.30;;;7.62;57.84;95093.53;5077635;28;20550;-56
2022/11/29 10:35:19;;;;;;;4.50;2.50;;;7.70;94.40;;;7.60;58.43;95091.97;5078985;28;20485;-56
2022/11/29 10:37:46;;;;;;;6.63;3.07;;;7.70;94.30;;;7.59;58.65;95087.66;5079559;28;20453;-55
2022/11/29 10:40:16;;;;;;;4.10;2.30;;;7.70;94.60;;;7.60;58.67;95092.78;5077260;28;21077;-55
2022/11/29 10:42:51;;;;;;;4.53;2.20;;;7.70;94.80;;;7.61;58.56;95089.22;5080479;28;20458;-56
2022/11/29 10:45:27;;;;;;;3.90;2.53;;;7.70;94.70;;;7.61;58.83;95089.22;5076958;28;20753;-56
2022/11/29 10:47:58;;;;;;;3.80;3.00;;;7.70;94.80;;;7.63;59.02;95091.72;5080147;28;20941;-56
2022/11/29 10:50:28;;;;;;;5.10;2.77;;;7.70;94.90;;;7.67;59.44;95085.31;5079067;28;20684;-56
2022/11/29 10:52:56;;;;;;;8.83;3.43;;;7.70;95.00;;;7.69;58.77;95088.63;5079824;28;20447;-54
2022/11/29 10:55:23;;;;;;;2.83;2.50;;;7.80;95.00;;;7.68;59.12;95086.97;5082529;28;20474;-56
2022/11/29 10:58:15;;;;;;;3.50;2.50;;;7.80;94.90;;;7.75;58.78;95087.34;5083687;28;20442;-57
2022/11/29 11:00:50;;;;;;;2.00;1.90;;;7.80;94.90;;;7.79;57.84;95092.22;5084731;28;20484;-55
2022/11/29 11:03:27;;;;;;;5.33;3.03;;;7.80;94.40;;;7.81;58.79;95092.13;5077201;28;20553;-57
2022/11/29 11:06:08;;;;;;;6.80;2.83;;;7.90;94.70;;;7.81;58.45;95092.94;5081442;28;20461;-53
2022/11/29 11:08:36;;;;;;;3.70;2.40;;;7.90;94.70;;;7.82;59.33;95089.38;5083213;28;20955;-56
2022/11/29 11:11:04;;;;;;;3.23;2.70;;;7.90;95.40;;;7.82;59.62;95084.16;5081097;28;21033;-56
2022/11/29 11:13:32;;;;;;;4.17;2.77;;;7.90;95.70;;;7.88;58.17;95088.91;5082856;28;21023;-54